Karlsruhe Baden-Baden Airport EDSB

Flugplatz Daten

Name: Karlsruhe Baden-Baden Airport

Ident: EDSB

Lat: 48,77939987

Long: 8,080499649

Platzhöhe: 408 ft

IataCode: FKB

City: Baden-Baden

Metar

2021/10/20 12:20
EDSB 201220Z 21015KT CAVOK 20/11 Q1012

Taf

2021/10/20 12:27
TAF EDSB 201100Z 2012/2112 21015G25KT CAVOK
TEMPO 2017/2021 SHRA BKN020CB
TEMPO 2021/2103 RA
BECMG 2100/2103 21020G35KT
TEMPO 2103/2110 23025G45KT SHRA BKN030CB
Gewünschte Webcam nicht vorhanden? Dann fügen Sie eine hinzu. Sie wird dann so schnell wie möglich freigeschaltet
Url: Title: